sensor_id;sensor_type;location;lat;lon;timestamp;pressure;altitude;pressure_sealevel;temperature;humidity
2397;BME280;1209;48.410;9.054;2023-02-04T00:00:43;97499.81;;;5.73;100.00
2397;BME280;1209;48.410;9.054;2023-02-04T00:03:10;97499.00;;;5.73;100.00
2397;BME280;1209;48.410;9.054;2023-02-04T00:05:36;97500.16;;;5.68;100.00
2397;BME280;1209;48.410;9.054;2023-02-04T00:08:01;97501.69;;;5.71;100.00
2397;BME280;1209;48.410;9.054;2023-02-04T00:10:26;97498.00;;;5.62;100.00
2397;BME280;1209;48.410;9.054;2023-02-04T00:12:52;97486.25;;;5.69;100.00
2397;BME280;1209;48.410;9.054;2023-02-04T00:15:17;97473.72;;;5.63;100.00
2397;BME280;1209;48.410;9.054;2023-02-04T00:17:42;97493.09;;;5.71;100.00
2397;BME280;1209;48.410;9.054;2023-02-04T00:20:08;97485.50;;;5.67;100.00
2397;BME280;1209;48.410;9.054;2023-02-04T00:22:33;97495.16;;;5.65;100.00
2397;BME280;1209;48.410;9.054;2023-02-04T00:24:59;97495.47;;;5.74;100.00
2397;BME280;1209;48.410;9.054;2023-02-04T00:27:25;97490.94;;;5.64;100.00
2397;BME280;1209;48.410;9.054;2023-02-04T00:29:50;97492.47;;;5.67;100.00
2397;BME280;1209;48.410;9.054;2023-02-04T00:32:15;97491.22;;;5.73;100.00
2397;BME280;1209;48.410;9.054;2023-02-04T00:34:41;97507.81;;;5.70;100.00
2397;BME280;1209;48.410;9.054;2023-02-04T00:37:07;97511.13;;;5.72;100.00
2397;BME280;1209;48.410;9.054;2023-02-04T00:39:32;97507.41;;;5.63;100.00
2397;BME280;1209;48.410;9.054;2023-02-04T00:41:57;97504.72;;;5.65;100.00
2397;BME280;1209;48.410;9.054;2023-02-04T00:44:23;97498.59;;;5.66;100.00
2397;BME280;1209;48.410;9.054;2023-02-04T00:46:48;97505.00;;;5.73;100.00
2397;BME280;1209;48.410;9.054;2023-02-04T00:49:13;97503.13;;;5.75;100.00
2397;BME280;1209;48.410;9.054;2023-02-04T00:51:39;97510.19;;;5.73;100.00
2397;BME280;1209;48.410;9.054;2023-02-04T00:54:08;97509.56;;;5.69;100.00
2397;BME280;1209;48.410;9.054;2023-02-04T00:56:34;97504.53;;;5.79;100.00
2397;BME280;1209;48.410;9.054;2023-02-04T00:58:59;97508.91;;;5.79;100.00
2397;BME280;1209;48.410;9.054;2023-02-04T01:01:24;97512.78;;;5.73;100.00
2397;BME280;1209;48.410;9.054;2023-02-04T01:03:50;97517.00;;;5.74;100.00
2397;BME280;1209;48.410;9.054;2023-02-04T01:06:16;97515.03;;;5.78;100.00
2397;BME280;1209;48.410;9.054;2023-02-04T01:08:42;97507.00;;;5.81;100.00
2397;BME280;1209;48.410;9.054;2023-02-04T01:11:07;97503.13;;;5.75;100.00
2397;BME280;1209;48.410;9.054;2023-02-04T01:13:32;97511.50;;;5.79;100.00
2397;BME280;1209;48.410;9.054;2023-02-04T01:15:58;97500.88;;;5.71;100.00
2397;BME280;1209;48.410;9.054;2023-02-04T01:18:24;97505.72;;;5.75;100.00
2397;BME280;1209;48.410;9.054;2023-02-04T01:20:49;97508.91;;;5.79;100.00
2397;BME280;1209;48.410;9.054;2023-02-04T01:23:15;97501.81;;;5.69;100.00
2397;BME280;1209;48.410;9.054;2023-02-04T01:25:40;97512.88;;;5.72;100.00
2397;BME280;1209;48.410;9.054;2023-02-04T01:28:05;97508.66;;;5.82;100.00
2397;BME280;1209;48.410;9.054;2023-02-04T01:30:31;97505.13;;;5.83;100.00
2397;BME280;1209;48.410;9.054;2023-02-04T01:32:56;97504.53;;;5.79;100.00
2397;BME280;1209;48.410;9.054;2023-02-04T01:35:21;97506.31;;;5.79;100.00
2397;BME280;1209;48.410;9.054;2023-02-04T01:37:46;97508.56;;;5.83;100.00
2397;BME280;1209;48.410;9.054;2023-02-04T01:40:12;97513.50;;;5.86;100.00
2397;BME280;1209;48.410;9.054;2023-02-04T01:42:37;97502.31;;;5.86;100.00
2397;BME280;1209;48.410;9.054;2023-02-04T01:45:03;97499.94;;;5.83;100.00
2397;BME280;1209;48.410;9.054;2023-02-04T01:47:31;97508.13;;;5.89;100.00
2397;BME280;1209;48.410;9.054;2023-02-04T01:49:56;97508.44;;;5.85;100.00
2397;BME280;1209;48.410;9.054;2023-02-04T01:52:22;97506.91;;;5.82;100.00
2397;BME280;1209;48.410;9.054;2023-02-04T01:54:49;97515.97;;;5.88;100.00
2397;BME280;1209;48.410;9.054;2023-02-04T01:57:15;97514.44;;;5.85;100.00
2397;BME280;1209;48.410;9.054;2023-02-04T01:59:45;97508.44;;;5.85;100.00
2397;BME280;1209;48.410;9.054;2023-02-04T02:02:47;97505.72;;;5.86;100.00
2397;BME280;1209;48.410;9.054;2023-02-04T02:05:17;97509.03;;;5.88;100.00
2397;BME280;1209;48.410;9.054;2023-02-04T02:07:46;97510.72;;;5.89;100.00
2397;BME280;1209;48.410;9.054;2023-02-04T02:10:12;97511.31;;;5.93;100.00
2397;BME280;1209;48.410;9.054;2023-02-04T02:12:38;97514.97;;;5.90;100.00
2397;BME280;1209;48.410;9.054;2023-02-04T02:15:04;97507.25;;;5.89;100.00
2397;BME280;1209;48.410;9.054;2023-02-04T02:17:30;97509.66;;;5.92;100.00
2397;BME280;1209;48.410;9.054;2023-02-04T02:19:55;97515.31;;;5.97;100.00
2397;BME280;1209;48.410;9.054;2023-02-04T02:22:30;97522.28;;;5.96;100.00
2397;BME280;1209;48.410;9.054;2023-02-04T02:24:56;97510.97;;;5.97;100.00
2397;BME280;1209;48.410;9.054;2023-02-04T02:27:22;97512.72;;;5.97;100.00
2397;BME280;1209;48.410;9.054;2023-02-04T02:29:47;97514.59;;;5.95;100.00
2397;BME280;1209;48.410;9.054;2023-02-04T02:32:13;97524.03;;;5.96;100.00
2397;BME280;1209;48.410;9.054;2023-02-04T02:34:40;97516.97;;;5.98;100.00
2397;BME280;1209;48.410;9.054;2023-02-04T02:37:07;97520.03;;;6.03;100.00
2397;BME280;1209;48.410;9.054;2023-02-04T02:39:37;97515.44;;;6.07;100.00
2397;BME280;1209;48.410;9.054;2023-02-04T02:42:03;97521.56;;;6.06;100.00
2397;BME280;1209;48.410;9.054;2023-02-04T02:44:30;97515.56;;;6.05;100.00
2397;BME280;1209;48.410;9.054;2023-02-04T02:46:56;97517.56;;;6.02;100.00
2397;BME280;1209;48.410;9.054;2023-02-04T02:49:22;97508.03;;;6.02;100.00
2397;BME280;1209;48.410;9.054;2023-02-04T02:51:48;97520.75;;;6.05;100.00
2397;BME280;1209;48.410;9.054;2023-02-04T02:54:27;97513.44;;;5.99;100.00
2397;BME280;1209;48.410;9.054;2023-02-04T02:56:54;97508.84;;;6.03;100.00
2397;BME280;1209;48.410;9.054;2023-02-04T02:59:20;97520.28;;;6.11;100.00
2397;BME280;1209;48.410;9.054;2023-02-04T03:01:48;97520.19;;;6.13;100.00
2397;BME280;1209;48.410;9.054;2023-02-04T03:04:17;97530.41;;;6.03;100.00
2397;BME280;1209;48.410;9.054;2023-02-04T03:06:43;97536.19;;;6.07;100.00
2397;BME280;1209;48.410;9.054;2023-02-04T03:09:08;97536.53;;;6.02;100.00
2397;BME280;1209;48.410;9.054;2023-02-04T03:11:34;97529.59;;;6.14;100.00
2397;BME280;1209;48.410;9.054;2023-02-04T03:13:59;97520.06;;;6.14;100.00
2397;BME280;1209;48.410;9.054;2023-02-04T03:16:27;97515.81;;;6.13;100.00
2397;BME280;1209;48.410;9.054;2023-02-04T03:18:53;97516.56;;;6.15;100.00
2397;BME280;1209;48.410;9.054;2023-02-04T03:21:18;97518.09;;;6.18;100.00
2397;BME280;1209;48.410;9.054;2023-02-04T03:23:43;97529.59;;;6.14;100.00
2397;BME280;1209;48.410;9.054;2023-02-04T03:26:09;97536.84;;;6.21;100.00
2397;BME280;1209;48.410;9.054;2023-02-04T03:28:38;97543.06;;;6.19;100.00
2397;BME280;1209;48.410;9.054;2023-02-04T03:31:04;97538.00;;;6.17;100.00
2397;BME280;1209;48.410;9.054;2023-02-04T03:33:30;97535.28;;;6.19;100.00
2397;BME280;1209;48.410;9.054;2023-02-04T03:35:56;97540.38;;;6.20;100.00
2397;BME280;1209;48.410;9.054;2023-02-04T03:38:22;97543.66;;;6.22;100.00
2397;BME280;1209;48.410;9.054;2023-02-04T03:44:09;97546.72;;;6.16;100.00
2397;BME280;1209;48.410;9.054;2023-02-04T03:46:34;97549.63;;;6.12;100.00
2397;BME280;1209;48.410;9.054;2023-02-04T03:48:59;97554.94;;;6.10;100.00
2397;BME280;1209;48.410;9.054;2023-02-04T03:51:25;97549.53;;;6.13;100.00
2397;BME280;1209;48.410;9.054;2023-02-04T03:53:50;97561.22;;;6.19;100.00
2397;BME280;1209;48.410;9.054;2023-02-04T03:56:15;97579.09;;;6.11;100.00
2397;BME280;1209;48.410;9.054;2023-02-04T03:58:41;97585.22;;;5.98;100.00
2397;BME280;1209;48.410;9.054;2023-02-04T04:01:06;97594.25;;;5.93;100.00
2397;BME280;1209;48.410;9.054;2023-02-04T04:03:32;97596.69;;;5.83;100.00
2397;BME280;1209;48.410;9.054;2023-02-04T04:05:57;97601.84;;;5.83;100.00
2397;BME280;1209;48.410;9.054;2023-02-04T04:08:22;97599.97;;;5.85;100.00
2397;BME280;1209;48.410;9.054;2023-02-04T04:10:47;97593.38;;;5.81;100.00
2397;BME280;1209;48.410;9.054;2023-02-04T04:13:13;97598.78;;;5.78;100.00
2397;BME280;1209;48.410;9.054;2023-02-04T04:15:38;97596.56;;;5.85;100.00
2397;BME280;1209;48.410;9.054;2023-02-04T04:18:03;97597.69;;;5.93;100.00
2397;BME280;1209;48.410;9.054;2023-02-04T04:20:29;97601.22;;;5.92;100.00
2397;BME280;1209;48.410;9.054;2023-02-04T04:22:55;97592.75;;;6.02;100.00
2397;BME280;1209;48.410;9.054;2023-02-04T04:25:20;97602.31;;;6.01;100.00
2397;BME280;1209;48.410;9.054;2023-02-04T04:27:45;97594.91;;;6.08;100.00
2397;BME280;1209;48.410;9.054;2023-02-04T04:30:11;97598.78;;;6.02;100.00
2397;BME280;1209;48.410;9.054;2023-02-04T04:32:36;97589.72;;;6.08;100.00
2397;BME280;1209;48.410;9.054;2023-02-04T04:35:02;97599.72;;;6.12;100.00
2397;BME280;1209;48.410;9.054;2023-02-04T04:37:27;97587.16;;;6.19;100.00
2397;BME280;1209;48.410;9.054;2023-02-04T04:39:53;97600.19;;;6.06;100.00
2397;BME280;1209;48.410;9.054;2023-02-04T04:42:18;97605.38;;;6.06;100.00
2397;BME280;1209;48.410;9.054;2023-02-04T04:44:43;97614.59;;;6.10;100.00
2397;BME280;1209;48.410;9.054;2023-02-04T04:47:09;97622.56;;;5.96;100.00
2397;BME280;1209;48.410;9.054;2023-02-04T04:49:34;97625.59;;;5.90;100.00
2397;BME280;1209;48.410;9.054;2023-02-04T04:51:59;97622.91;;;5.91;100.00
2397;BME280;1209;48.410;9.054;2023-02-04T04:54:25;97622.22;;;6.00;100.00
2397;BME280;1209;48.410;9.054;2023-02-04T04:56:50;97626.84;;;5.84;100.00
2397;BME280;1209;48.410;9.054;2023-02-04T04:59:15;97623.66;;;5.81;100.00
2397;BME280;1209;48.410;9.054;2023-02-04T05:01:40;97630.31;;;5.72;100.00
2397;BME280;1209;48.410;9.054;2023-02-04T05:04:06;97618.19;;;5.73;100.00
2397;BME280;1209;48.410;9.054;2023-02-04T05:06:31;97622.22;;;5.77;100.00
2397;BME280;1209;48.410;9.054;2023-02-04T05:08:57;97616.22;;;5.76;100.00
2397;BME280;1209;48.410;9.054;2023-02-04T05:11:22;97621.44;;;5.63;100.00
2397;BME280;1209;48.410;9.054;2023-02-04T05:13:47;97631.78;;;5.63;100.00
2397;BME280;1209;48.410;9.054;2023-02-04T05:16:13;97631.78;;;5.63;100.00
2397;BME280;1209;48.410;9.054;2023-02-04T05:18:40;97635.75;;;5.56;100.00
2397;BME280;1209;48.410;9.054;2023-02-04T05:21:05;97627.97;;;5.56;100.00
2397;BME280;1209;48.410;9.054;2023-02-04T05:23:31;97640.72;;;5.59;100.00
2397;BME280;1209;48.410;9.054;2023-02-04T05:25:56;97642.81;;;5.54;100.00
2397;BME280;1209;48.410;9.054;2023-02-04T05:28:22;97639.28;;;5.55;100.00
2397;BME280;1209;48.410;9.054;2023-02-04T05:30:48;97645.28;;;5.56;100.00
2397;BME280;1209;48.410;9.054;2023-02-04T05:33:13;97643.59;;;5.67;100.00
2397;BME280;1209;48.410;9.054;2023-02-04T05:35:39;97652.97;;;5.57;100.00
2397;BME280;1209;48.410;9.054;2023-02-04T05:38:04;97652.97;;;5.57;100.00
2397;BME280;1209;48.410;9.054;2023-02-04T05:40:29;97644.19;;;5.47;100.00
2397;BME280;1209;48.410;9.054;2023-02-04T05:42:55;97655.06;;;5.52;100.00
2397;BME280;1209;48.410;9.054;2023-02-04T05:45:20;97656.25;;;5.72;100.00
2397;BME280;1209;48.410;9.054;2023-02-04T05:47:45;97653.75;;;5.71;100.00
2397;BME280;1209;48.410;9.054;2023-02-04T05:50:11;97662.84;;;5.76;100.00
2397;BME280;1209;48.410;9.054;2023-02-04T05:52:37;97658.28;;;5.80;100.00
2397;BME280;1209;48.410;9.054;2023-02-04T05:55:03;97660.88;;;5.80;100.00
2397;BME280;1209;48.410;9.054;2023-02-04T05:57:29;97665.94;;;5.81;100.00
2397;BME280;1209;48.410;9.054;2023-02-04T05:59:55;97668.91;;;5.88;100.00
2397;BME280;1209;48.410;9.054;2023-02-04T06:02:20;97674.53;;;5.94;100.00
2397;BME280;1209;48.410;9.054;2023-02-04T06:04:45;97691.72;;;5.95;100.00
2397;BME280;1209;48.410;9.054;2023-02-04T06:07:10;97675.94;;;5.75;100.00
2397;BME280;1209;48.410;9.054;2023-02-04T06:09:36;97690.53;;;5.76;100.00
2397;BME280;1209;48.410;9.054;2023-02-04T06:12:01;97679.00;;;5.80;100.00
2397;BME280;1209;48.410;9.054;2023-02-04T06:14:26;97671.91;;;5.71;100.00
2397;BME280;1209;48.410;9.054;2023-02-04T06:16:52;97681.44;;;5.70;100.00
2397;BME280;1209;48.410;9.054;2023-02-04T06:19:17;97679.84;;;5.80;100.00
2397;BME280;1209;48.410;9.054;2023-02-04T06:21:42;97678.78;;;5.83;100.00
2397;BME280;1209;48.410;9.054;2023-02-04T06:24:09;97686.91;;;5.78;100.00
2397;BME280;1209;48.410;9.054;2023-02-04T06:26:34;97689.38;;;5.80;100.00
2397;BME280;1209;48.410;9.054;2023-02-04T06:28:59;97696.44;;;5.78;100.00
2397;BME280;1209;48.410;9.054;2023-02-04T06:31:25;97698.09;;;5.79;100.00
2397;BME280;1209;48.410;9.054;2023-02-04T06:33:50;97698.59;;;5.84;100.00
2397;BME280;1209;48.410;9.054;2023-02-04T06:36:15;97700.47;;;5.82;100.00
2397;BME280;1209;48.410;9.054;2023-02-04T06:38:40;97712.84;;;5.65;100.00
2397;BME280;1209;48.410;9.054;2023-02-04T06:41:06;97717.81;;;5.68;100.00
2397;BME280;1209;48.410;9.054;2023-02-04T06:43:31;97715.66;;;5.62;100.00
2397;BME280;1209;48.410;9.054;2023-02-04T06:45:56;97714.81;;;5.75;100.00
2397;BME280;1209;48.410;9.054;2023-02-04T06:48:22;97711.88;;;5.79;100.00
2397;BME280;1209;48.410;9.054;2023-02-04T06:50:47;97717.78;;;5.81;100.00
2397;BME280;1209;48.410;9.054;2023-02-04T06:53:12;97723.06;;;5.80;100.00
2397;BME280;1209;48.410;9.054;2023-02-04T06:55:38;97722.97;;;5.81;100.00
2397;BME280;1209;48.410;9.054;2023-02-04T06:58:03;97727.53;;;5.78;100.00
2397;BME280;1209;48.410;9.054;2023-02-04T07:00:29;97729.41;;;5.76;100.00
2397;BME280;1209;48.410;9.054;2023-02-04T07:02:55;97736.38;;;5.75;100.00
2397;BME280;1209;48.410;9.054;2023-02-04T07:05:23;97745.06;;;5.74;100.00
2397;BME280;1209;48.410;9.054;2023-02-04T07:07:48;97735.31;;;5.78;100.00
2397;BME280;1209;48.410;9.054;2023-02-04T07:10:14;97742.59;;;5.60;100.00
2397;BME280;1209;48.410;9.054;2023-02-04T07:12:40;97746.63;;;5.64;100.00
2397;BME280;1209;48.410;9.054;2023-02-04T07:15:06;97748.19;;;5.66;100.00
2397;BME280;1209;48.410;9.054;2023-02-04T07:17:31;97753.91;;;5.59;100.00
2397;BME280;1209;48.410;9.054;2023-02-04T07:19:57;97753.69;;;5.62;100.00
2397;BME280;1209;48.410;9.054;2023-02-04T07:22:22;97753.69;;;5.75;100.00
2397;BME280;1209;48.410;9.054;2023-02-04T07:24:47;97749.19;;;5.89;100.00
2397;BME280;1209;48.410;9.054;2023-02-04T07:27:13;97756.88;;;5.65;100.00
2397;BME280;1209;48.410;9.054;2023-02-04T07:29:39;97757.94;;;5.63;100.00
2397;BME280;1209;48.410;9.054;2023-02-04T07:32:04;97763.53;;;5.69;100.00
2397;BME280;1209;48.410;9.054;2023-02-04T07:34:30;97756.88;;;5.78;100.00
2397;BME280;1209;48.410;9.054;2023-02-04T07:36:55;97761.97;;;5.67;100.00
2397;BME280;1209;48.410;9.054;2023-02-04T07:39:20;97757.94;;;5.76;100.00
2397;BME280;1209;48.410;9.054;2023-02-04T07:41:46;97757.09;;;5.75;100.00
2397;BME280;1209;48.410;9.054;2023-02-04T07:44:11;97764.03;;;5.75;100.00
2397;BME280;1209;48.410;9.054;2023-02-04T07:46:36;97763.13;;;5.63;100.00
2397;BME280;1209;48.410;9.054;2023-02-04T07:49:02;97765.38;;;5.67;100.00
2397;BME280;1209;48.410;9.054;2023-02-04T07:51:27;97767.06;;;5.68;100.00
2397;BME280;1209;48.410;9.054;2023-02-04T07:53:52;97770.78;;;5.77;100.00
2397;BME280;1209;48.410;9.054;2023-02-04T07:56:18;97780.44;;;5.75;100.00
2397;BME280;1209;48.410;9.054;2023-02-04T07:58:43;97779.50;;;5.76;100.00
2397;BME280;1209;48.410;9.054;2023-02-04T08:01:08;97780.09;;;5.80;100.00
2397;BME280;1209;48.410;9.054;2023-02-04T08:03:34;97783.41;;;5.82;100.00
2397;BME280;1209;48.410;9.054;2023-02-04T08:05:59;97782.97;;;5.88;100.00
2397;BME280;1209;48.410;9.054;2023-02-04T08:08:24;97786.72;;;5.84;100.00
2397;BME280;1209;48.410;9.054;2023-02-04T08:10:50;97793.88;;;5.80;100.00
2397;BME280;1209;48.410;9.054;2023-02-04T08:13:15;97792.88;;;5.70;100.00
2397;BME280;1209;48.410;9.054;2023-02-04T08:15:41;97794.72;;;5.81;100.00
2397;BME280;1209;48.410;9.054;2023-02-04T08:18:06;97790.16;;;5.84;100.00
2397;BME280;1209;48.410;9.054;2023-02-04T08:20:32;97797.81;;;5.86;100.00
2397;BME280;1209;48.410;9.054;2023-02-04T08:22:58;97801.16;;;5.75;100.00
2397;BME280;1209;48.410;9.054;2023-02-04T08:25:23;97808.22;;;5.73;100.00
2397;BME280;1209;48.410;9.054;2023-02-04T08:27:49;97807.88;;;5.90;100.00
2397;BME280;1209;48.410;9.054;2023-02-04T08:30:14;97800.78;;;6.05;100.00
2397;BME280;1209;48.410;9.054;2023-02-04T08:32:39;97803.44;;;5.80;100.00
2397;BME280;1209;48.410;9.054;2023-02-04T08:35:06;97808.31;;;5.72;100.00
2397;BME280;1209;48.410;9.054;2023-02-04T08:37:32;97817.75;;;5.73;100.00
2397;BME280;1209;48.410;9.054;2023-02-04T08:39:57;97811.00;;;5.70;100.00
2397;BME280;1209;48.410;9.054;2023-02-04T08:42:22;97825.94;;;5.79;100.00
2397;BME280;1209;48.410;9.054;2023-02-04T08:44:48;97826.75;;;5.92;100.00
2397;BME280;1209;48.410;9.054;2023-02-04T08:47:13;97824.56;;;5.99;100.00
2397;BME280;1209;48.410;9.054;2023-02-04T08:49:38;97833.16;;;5.99;100.00
2397;BME280;1209;48.410;9.054;2023-02-04T08:52:04;97829.25;;;5.81;100.00
2397;BME280;1209;48.410;9.054;2023-02-04T08:54:31;97830.47;;;5.88;100.00
2397;BME280;1209;48.410;9.054;2023-02-04T08:56:57;97846.75;;;6.03;100.00
2397;BME280;1209;48.410;9.054;2023-02-04T08:59:24;97843.41;;;6.14;100.00
2397;BME280;1209;48.410;9.054;2023-02-04T09:01:50;97841.13;;;6.22;100.00
2397;BME280;1209;48.410;9.054;2023-02-04T09:04:20;97852.56;;;5.94;100.00
2397;BME280;1209;48.410;9.054;2023-02-04T09:06:47;97853.06;;;5.86;100.00
2397;BME280;1209;48.410;9.054;2023-02-04T09:09:13;97852.53;;;6.07;100.00
2397;BME280;1209;48.410;9.054;2023-02-04T09:11:39;97847.34;;;6.19;100.00
2397;BME280;1209;48.410;9.054;2023-02-04T09:14:05;97852.88;;;6.39;100.00
2397;BME280;1209;48.410;9.054;2023-02-04T09:16:31;97850.28;;;6.39;100.00
2397;BME280;1209;48.410;9.054;2023-02-04T09:18:56;97860.44;;;6.42;100.00
2397;BME280;1209;48.410;9.054;2023-02-04T09:21:23;97868.22;;;6.42;100.00
2397;BME280;1209;48.410;9.054;2023-02-04T09:23:48;97868.88;;;6.32;100.00
2397;BME280;1209;48.410;9.054;2023-02-04T09:26:14;97860.88;;;6.36;100.00
2397;BME280;1209;48.410;9.054;2023-02-04T09:28:39;97864.53;;;6.33;100.00
2397;BME280;1209;48.410;9.054;2023-02-04T09:31:04;97863.22;;;6.15;100.00
2397;BME280;1209;48.410;9.054;2023-02-04T09:33:33;97872.75;;;6.14;100.00
2397;BME280;1209;48.410;9.054;2023-02-04T09:35:59;97872.16;;;5.98;100.00
2397;BME280;1209;48.410;9.054;2023-02-04T09:38:25;97875.91;;;5.94;100.00
2397;BME280;1209;48.410;9.054;2023-02-04T09:40:56;97884.31;;;5.97;100.00
2397;BME280;1209;48.410;9.054;2023-02-04T09:43:26;97891.84;;;5.88;100.00
2397;BME280;1209;48.410;9.054;2023-02-04T09:45:52;97883.47;;;5.84;100.00
2397;BME280;1209;48.410;9.054;2023-02-04T09:48:18;97890.31;;;5.98;100.00
2397;BME280;1209;48.410;9.054;2023-02-04T09:50:45;97894.06;;;5.94;100.00
2397;BME280;1209;48.410;9.054;2023-02-04T09:53:14;97897.88;;;5.88;100.00
2397;BME280;1209;48.410;9.054;2023-02-04T09:55:44;97899.25;;;5.94;100.00
2397;BME280;1209;48.410;9.054;2023-02-04T09:58:20;97898.00;;;5.74;100.00
2397;BME280;1209;48.410;9.054;2023-02-04T10:01:14;97894.88;;;5.94;100.00
2397;BME280;1209;48.410;9.054;2023-02-04T10:03:41;97903.38;;;5.84;100.00
2397;BME280;1209;48.410;9.054;2023-02-04T10:06:15;97904.69;;;6.15;100.00
2397;BME280;1209;48.410;9.054;2023-02-04T10:08:43;97903.59;;;6.19;100.00
2397;BME280;1209;48.410;9.054;2023-02-04T10:11:09;97904.63;;;6.16;100.00
2397;BME280;1209;48.410;9.054;2023-02-04T10:13:43;97909.72;;;6.18;100.00
2397;BME280;1209;48.410;9.054;2023-02-04T10:16:13;97898.47;;;6.30;100.00
2397;BME280;1209;48.410;9.054;2023-02-04T10:18:40;97910.03;;;6.62;100.00
2397;BME280;1209;48.410;9.054;2023-02-04T10:23:42;97907.38;;;6.75;100.00
2397;BME280;1209;48.410;9.054;2023-02-04T10:26:11;97906.31;;;7.02;100.00
2397;BME280;1209;48.410;9.054;2023-02-04T10:28:37;97897.03;;;6.86;100.00
2397;BME280;1209;48.410;9.054;2023-02-04T10:31:05;97898.34;;;7.16;100.00
2397;BME280;1209;48.410;9.054;2023-02-04T10:33:33;97898.75;;;7.80;100.00
2397;BME280;1209;48.410;9.054;2023-02-04T10:36:02;97898.97;;;7.66;100.00
2397;BME280;1209;48.410;9.054;2023-02-04T10:38:28;97888.72;;;7.40;100.00
2397;BME280;1209;48.410;9.054;2023-02-04T10:41:04;97893.66;;;7.21;100.00
2397;BME280;1209;48.410;9.054;2023-02-04T10:43:30;97897.13;;;7.09;100.00
2397;BME280;1209;48.410;9.054;2023-02-04T10:46:01;97889.41;;;7.31;100.00
2397;BME280;1209;48.410;9.054;2023-02-04T10:48:27;97892.59;;;7.23;100.00
2397;BME280;1209;48.410;9.054;2023-02-04T10:50:55;97890.16;;;7.55;100.00
2397;BME280;1209;48.410;9.054;2023-02-04T10:53:23;97881.06;;;7.50;100.00
2397;BME280;1209;48.410;9.054;2023-02-04T10:56:20;97886.97;;;7.41;100.00
2397;BME280;1209;48.410;9.054;2023-02-04T10:58:46;97887.72;;;7.19;100.00
2397;BME280;1209;48.410;9.054;2023-02-04T11:01:14;97887.38;;;6.88;100.00
2397;BME280;1209;48.410;9.054;2023-02-04T11:03:41;97881.19;;;6.78;100.00
2397;BME280;1209;48.410;9.054;2023-02-04T11:06:13;97876.16;;;6.64;100.00
2397;BME280;1209;48.410;9.054;2023-02-04T11:08:41;97884.09;;;6.50;100.00
2397;BME280;1209;48.410;9.054;2023-02-04T11:11:12;97881.59;;;6.48;100.00
2397;BME280;1209;48.410;9.054;2023-02-04T11:18:56;97880.16;;;6.44;100.00
2397;BME280;1209;48.410;9.054;2023-02-04T11:29:36;97894.75;;;6.58;100.00
2397;BME280;1209;48.410;9.054;2023-02-04T11:34:51;97890.72;;;7.25;100.00
2397;BME280;1209;48.410;9.054;2023-02-04T11:39:57;97885.03;;;7.20;100.00
2397;BME280;1209;48.410;9.054;2023-02-04T11:42:56;97888.19;;;7.13;100.00
2397;BME280;1209;48.410;9.054;2023-02-04T11:45:31;97893.03;;;7.17;100.00
2397;BME280;1209;48.410;9.054;2023-02-04T11:48:02;97884.75;;;7.12;100.00
2397;BME280;1209;48.410;9.054;2023-02-04T11:50:31;97884.00;;;7.34;100.00
2397;BME280;1209;48.410;9.054;2023-02-04T11:52:59;97887.22;;;7.49;100.00
2397;BME280;1209;48.410;9.054;2023-02-04T11:55:29;97881.75;;;7.30;100.00
2397;BME280;1209;48.410;9.054;2023-02-04T11:57:55;97882.94;;;7.37;100.00
2397;BME280;1209;48.410;9.054;2023-02-04T12:00:23;97888.47;;;7.32;100.00
2397;BME280;1209;48.410;9.054;2023-02-04T12:03:02;97881.88;;;7.39;100.00
2397;BME280;1209;48.410;9.054;2023-02-04T12:05:43;97883.06;;;7.46;100.00
2397;BME280;1209;48.410;9.054;2023-02-04T12:08:31;97888.91;;;7.61;100.00
2397;BME280;1209;48.410;9.054;2023-02-04T12:11:09;97888.97;;;7.48;100.00
2397;BME280;1209;48.410;9.054;2023-02-04T12:13:50;97880.41;;;7.59;100.00
2397;BME280;1209;48.410;9.054;2023-02-04T12:16:16;97880.44;;;7.35;100.00
2397;BME280;1209;48.410;9.054;2023-02-04T12:18:42;97895.66;;;7.75;100.00
2397;BME280;1209;48.410;9.054;2023-02-04T12:21:07;97885.53;;;7.37;100.00
2397;BME280;1209;48.410;9.054;2023-02-04T12:23:32;97893.94;;;7.51;100.00
2397;BME280;1209;48.410;9.054;2023-02-04T12:25:58;97894.34;;;7.58;100.00
2397;BME280;1209;48.410;9.054;2023-02-04T12:28:23;97889.03;;;7.60;100.00
2397;BME280;1209;48.410;9.054;2023-02-04T12:30:49;97891.88;;;7.68;100.00
2397;BME280;1209;48.410;9.054;2023-02-04T12:33:16;97888.94;;;7.83;100.00
2397;BME280;1209;48.410;9.054;2023-02-04T12:35:41;97897.13;;;8.12;100.00
2397;BME280;1209;48.410;9.054;2023-02-04T12:38:07;97892.34;;;7.95;100.00
2397;BME280;1209;48.410;9.054;2023-02-04T12:40:33;97894.28;;;8.15;100.00
2397;BME280;1209;48.410;9.054;2023-02-04T12:42:59;97896.16;;;8.13;100.00
2397;BME280;1209;48.410;9.054;2023-02-04T12:45:24;97890.09;;;7.79;100.00
2397;BME280;1209;48.410;9.054;2023-02-04T12:47:50;97895.44;;;7.89;100.00
2397;BME280;1209;48.410;9.054;2023-02-04T12:50:17;97895.91;;;7.83;100.00
2397;BME280;1209;48.410;9.054;2023-02-04T12:52:55;97901.00;;;8.18;100.00
2397;BME280;1209;48.410;9.054;2023-02-04T12:55:22;97896.41;;;8.10;100.00
2397;BME280;1209;48.410;9.054;2023-02-04T12:57:48;97902.78;;;8.29;100.00
2397;BME280;1209;48.410;9.054;2023-02-04T13:00:15;97905.63;;;8.14;100.00
2397;BME280;1209;48.410;9.054;2023-02-04T13:02:42;97917.06;;;8.01;100.00
2397;BME280;1209;48.410;9.054;2023-02-04T13:05:07;97910.72;;;8.05;100.00
2397;BME280;1209;48.410;9.054;2023-02-04T13:07:33;97907.03;;;8.18;100.00
2397;BME280;1209;48.410;9.054;2023-02-04T13:09:59;97904.09;;;8.12;100.00
2397;BME280;1209;48.410;9.054;2023-02-04T13:12:25;97907.75;;;8.20;100.00
2397;BME280;1209;48.410;9.054;2023-02-04T13:14:50;97904.31;;;8.09;100.00
2397;BME280;1209;48.410;9.054;2023-02-04T13:17:16;97902.28;;;8.01;100.00
2397;BME280;1209;48.410;9.054;2023-02-04T13:19:41;97902.88;;;7.94;100.00
2397;BME280;1209;48.410;9.054;2023-02-04T13:22:07;97908.19;;;7.92;100.00
2397;BME280;1209;48.410;9.054;2023-02-04T13:24:33;97911.91;;;8.12;100.00
2397;BME280;1209;48.410;9.054;2023-02-04T13:26:58;97921.72;;;8.08;100.00
2397;BME280;1209;48.410;9.054;2023-02-04T13:29:24;97921.81;;;8.07;100.00
2397;BME280;1209;48.410;9.054;2023-02-04T13:31:49;97913.88;;;7.97;100.00
2397;BME280;1209;48.410;9.054;2023-02-04T13:34:16;97915.78;;;8.29;100.00
2397;BME280;1209;48.410;9.054;2023-02-04T13:36:41;97914.84;;;8.41;100.00
2397;BME280;1209;48.410;9.054;2023-02-04T13:39:08;97912.13;;;8.31;100.00
2397;BME280;1209;48.410;9.054;2023-02-04T13:41:33;97919.69;;;8.23;100.00
2397;BME280;1209;48.410;9.054;2023-02-04T13:43:59;97914.38;;;8.13;100.00